sensor_id;sensor_type;location;lat;lon;timestamp;noise_LAeq;noise_LA_min;noise_LA_max;noise_LA01;noise_LA95
52872;Laerm;40124;52.198;9.902;2024-03-08T00:02:11;42.85;40.23;45.23;;
52872;Laerm;40124;52.198;9.902;2024-03-08T00:04:38;43.02;40.23;48.18;;
52872;Laerm;40124;52.198;9.902;2024-03-08T00:07:07;43.18;40.89;53.20;;
52872;Laerm;40124;52.198;9.902;2024-03-08T00:09:44;43.23;41.22;45.75;;
52872;Laerm;40124;52.198;9.902;2024-03-08T00:12:10;43.18;40.71;45.17;;
52872;Laerm;40124;52.198;9.902;2024-03-08T00:14:47;43.07;40.33;45.77;;
52872;Laerm;40124;52.198;9.902;2024-03-08T00:17:13;59.18;40.62;78.58;;
52872;Laerm;40124;52.198;9.902;2024-03-08T00:19:41;43.70;41.22;45.97;;
52872;Laerm;40124;52.198;9.902;2024-03-08T00:22:07;63.49;40.98;83.81;;
52872;Laerm;40124;52.198;9.902;2024-03-08T00:24:36;66.45;40.62;89.48;;
52872;Laerm;40124;52.198;9.902;2024-03-08T00:29:59;43.16;40.33;45.75;;
52872;Laerm;40124;52.198;9.902;2024-03-08T00:32:29;42.97;40.33;50.17;;
52872;Laerm;40124;52.198;9.902;2024-03-08T00:35:01;58.21;41.22;79.77;;
52872;Laerm;40124;52.198;9.902;2024-03-08T00:37:27;43.79;41.38;45.30;;
52872;Laerm;40124;52.198;9.902;2024-03-08T00:39:53;44.01;42.16;45.91;;
52872;Laerm;40124;52.198;9.902;2024-03-08T00:42:19;43.58;41.81;44.97;;
52872;Laerm;40124;52.198;9.902;2024-03-08T00:44:49;43.28;40.80;47.93;;
52872;Laerm;40124;52.198;9.902;2024-03-08T00:47:20;43.12;41.14;44.90;;
52872;Laerm;40124;52.198;9.902;2024-03-08T00:49:48;60.28;41.14;81.51;;
52872;Laerm;40124;52.198;9.902;2024-03-08T00:52:14;43.15;41.22;45.17;;
52872;Laerm;40124;52.198;9.902;2024-03-08T00:54:48;42.94;40.80;44.62;;
52872;Laerm;40124;52.198;9.902;2024-03-08T00:57:17;56.90;41.06;76.27;;
52872;Laerm;40124;52.198;9.902;2024-03-08T00:59:49;43.23;40.98;47.12;;
52872;Laerm;40124;52.198;9.902;2024-03-08T01:02:29;43.11;40.89;44.58;;
52872;Laerm;40124;52.198;9.902;2024-03-08T01:05:02;42.65;40.03;44.43;;
52872;Laerm;40124;52.198;9.902;2024-03-08T01:07:35;42.75;40.33;45.07;;
52872;Laerm;40124;52.198;9.902;2024-03-08T01:13:30;43.06;40.53;54.46;;
52872;Laerm;40124;52.198;9.902;2024-03-08T01:15:56;61.92;40.62;86.75;;
52872;Laerm;40124;52.198;9.902;2024-03-08T01:18:22;63.28;40.33;84.48;;
52872;Laerm;40124;52.198;9.902;2024-03-08T01:20:49;43.22;41.30;45.62;;
52872;Laerm;40124;52.198;9.902;2024-03-08T01:23:17;43.30;40.98;44.94;;
52872;Laerm;40124;52.198;9.902;2024-03-08T01:25:47;57.92;41.68;76.89;;
52872;Laerm;40124;52.198;9.902;2024-03-08T01:28:17;59.74;41.22;80.69;;
52872;Laerm;40124;52.198;9.902;2024-03-08T01:30:43;44.04;40.62;53.90;;
52872;Laerm;40124;52.198;9.902;2024-03-08T01:36:00;43.66;41.06;53.87;;
52872;Laerm;40124;52.198;9.902;2024-03-08T01:38:31;43.57;41.14;45.91;;
52872;Laerm;40124;52.198;9.902;2024-03-08T01:40:58;56.85;41.61;75.34;;
52872;Laerm;40124;52.198;9.902;2024-03-08T01:43:27;43.87;41.89;47.10;;
52872;Laerm;40124;52.198;9.902;2024-03-08T01:45:59;55.25;41.75;69.00;;
52872;Laerm;40124;52.198;9.902;2024-03-08T01:48:26;43.31;40.71;47.79;;
52872;Laerm;40124;52.198;9.902;2024-03-08T01:50:53;43.14;40.98;48.26;;
52872;Laerm;40124;52.198;9.902;2024-03-08T01:53:20;43.53;41.30;48.70;;
52872;Laerm;40124;52.198;9.902;2024-03-08T01:55:50;43.40;41.46;46.10;;
52872;Laerm;40124;52.198;9.902;2024-03-08T02:01:14;54.37;42.16;74.93;;
52872;Laerm;40124;52.198;9.902;2024-03-08T02:03:53;43.77;42.03;45.57;;
52872;Laerm;40124;52.198;9.902;2024-03-08T02:06:22;43.44;40.53;52.41;;
52872;Laerm;40124;52.198;9.902;2024-03-08T02:08:48;42.80;40.62;44.62;;
52872;Laerm;40124;52.198;9.902;2024-03-08T02:11:21;42.83;40.13;45.14;;
52872;Laerm;40124;52.198;9.902;2024-03-08T02:13:47;60.06;40.98;78.27;;
52872;Laerm;40124;52.198;9.902;2024-03-08T02:16:22;45.38;41.46;61.28;;
52872;Laerm;40124;52.198;9.902;2024-03-08T02:18:51;61.71;41.53;83.91;;
52872;Laerm;40124;52.198;9.902;2024-03-08T02:21:17;43.51;41.61;45.45;;
52872;Laerm;40124;52.198;9.902;2024-03-08T02:23:53;43.94;42.29;46.05;;
52872;Laerm;40124;52.198;9.902;2024-03-08T02:26:22;44.64;42.65;51.37;;
52872;Laerm;40124;52.198;9.902;2024-03-08T02:28:58;59.20;41.61;79.07;;
52872;Laerm;40124;52.198;9.902;2024-03-08T02:31:27;43.83;41.82;48.60;;
52872;Laerm;40124;52.198;9.902;2024-03-08T02:34:02;59.47;42.53;79.66;;
52872;Laerm;40124;52.198;9.902;2024-03-08T02:36:30;57.66;42.53;78.20;;
52872;Laerm;40124;52.198;9.902;2024-03-08T02:39:03;50.47;42.29;67.64;;
52872;Laerm;40124;52.198;9.902;2024-03-08T02:41:31;44.14;41.82;49.19;;
52872;Laerm;40124;52.198;9.902;2024-03-08T02:43:58;61.98;41.96;82.33;;
52872;Laerm;40124;52.198;9.902;2024-03-08T02:46:36;65.57;42.06;84.98;;
52872;Laerm;40124;52.198;9.902;2024-03-08T02:52:33;59.43;42.09;79.38;;
52872;Laerm;40124;52.198;9.902;2024-03-08T02:55:24;65.11;42.41;85.79;;
52872;Laerm;40124;52.198;9.902;2024-03-08T02:57:55;61.33;41.89;82.41;;
52872;Laerm;40124;52.198;9.902;2024-03-08T03:00:33;65.29;42.47;84.17;;
52872;Laerm;40124;52.198;9.902;2024-03-08T03:03:29;53.72;41.68;76.58;;
52872;Laerm;40124;52.198;9.902;2024-03-08T03:06:00;56.42;42.59;78.82;;
52872;Laerm;40124;52.198;9.902;2024-03-08T03:08:45;44.62;42.47;52.58;;
52872;Laerm;40124;52.198;9.902;2024-03-08T03:14:36;61.15;41.96;79.79;;
52872;Laerm;40124;52.198;9.902;2024-03-08T03:17:14;63.16;41.82;81.21;;
52872;Laerm;40124;52.198;9.902;2024-03-08T03:19:42;58.08;42.09;77.92;;
52872;Laerm;40124;52.198;9.902;2024-03-08T03:22:14;59.84;42.53;78.10;;
52872;Laerm;40124;52.198;9.902;2024-03-08T03:28:08;60.96;42.82;81.17;;
52872;Laerm;40124;52.198;9.902;2024-03-08T03:30:41;56.31;42.03;74.21;;
52872;Laerm;40124;52.198;9.902;2024-03-08T03:33:11;63.93;42.98;82.72;;
52872;Laerm;40124;52.198;9.902;2024-03-08T03:35:58;59.61;42.82;81.15;;
52872;Laerm;40124;52.198;9.902;2024-03-08T03:38:43;46.30;42.82;59.39;;
52872;Laerm;40124;52.198;9.902;2024-03-08T03:41:47;44.95;42.76;48.60;;
52872;Laerm;40124;52.198;9.902;2024-03-08T03:47:43;59.81;43.49;81.01;;
52872;Laerm;40124;52.198;9.902;2024-03-08T03:50:12;63.41;43.44;79.06;;
52872;Laerm;40124;52.198;9.902;2024-03-08T03:52:44;65.00;43.86;84.17;;
52872;Laerm;40124;52.198;9.902;2024-03-08T03:55:12;62.33;43.34;80.87;;
52872;Laerm;40124;52.198;9.902;2024-03-08T03:57:57;61.84;42.76;83.42;;
52872;Laerm;40124;52.198;9.902;2024-03-08T04:00:28;62.78;42.59;80.70;;
52872;Laerm;40124;52.198;9.902;2024-03-08T04:02:54;65.56;43.90;80.90;;
52872;Laerm;40124;52.198;9.902;2024-03-08T04:05:30;63.95;43.90;82.32;;
52872;Laerm;40124;52.198;9.902;2024-03-08T04:07:56;62.64;43.54;78.93;;
52872;Laerm;40124;52.198;9.902;2024-03-08T04:10:22;69.85;45.01;82.51;;
52872;Laerm;40124;52.198;9.902;2024-03-08T04:13:11;63.20;43.63;85.05;;
52872;Laerm;40124;52.198;9.902;2024-03-08T04:15:34;67.49;43.29;82.31;;
52872;Laerm;40124;52.198;9.902;2024-03-08T04:18:07;62.84;43.54;82.03;;
52872;Laerm;40124;52.198;9.902;2024-03-08T04:20:41;65.73;44.27;82.58;;
52872;Laerm;40124;52.198;9.902;2024-03-08T04:23:06;69.01;44.51;82.68;;
52872;Laerm;40124;52.198;9.902;2024-03-08T04:28:34;70.43;46.82;87.26;;
52872;Laerm;40124;52.198;9.902;2024-03-08T04:30:59;75.03;48.21;94.51;;
52872;Laerm;40124;52.198;9.902;2024-03-08T04:33:34;69.37;44.39;83.20;;
52872;Laerm;40124;52.198;9.902;2024-03-08T04:36:02;70.55;44.65;82.91;;
52872;Laerm;40124;52.198;9.902;2024-03-08T04:38:29;68.59;46.52;80.81;;
52872;Laerm;40124;52.198;9.902;2024-03-08T04:41:17;68.77;45.11;83.04;;
52872;Laerm;40124;52.198;9.902;2024-03-08T04:43:43;69.06;46.78;81.10;;
52872;Laerm;40124;52.198;9.902;2024-03-08T04:48:53;69.97;45.66;83.23;;
52872;Laerm;40124;52.198;9.902;2024-03-08T04:51:18;68.85;45.11;81.77;;
52872;Laerm;40124;52.198;9.902;2024-03-08T04:53:44;69.11;45.17;80.94;;
52872;Laerm;40124;52.198;9.902;2024-03-08T04:56:10;71.90;51.61;83.17;;
52872;Laerm;40124;52.198;9.902;2024-03-08T04:58:35;68.42;43.94;80.44;;
52872;Laerm;40124;52.198;9.902;2024-03-08T05:01:21;71.31;44.51;86.80;;
52872;Laerm;40124;52.198;9.902;2024-03-08T05:03:46;66.65;44.19;85.62;;
52872;Laerm;40124;52.198;9.902;2024-03-08T05:06:14;66.02;43.86;80.97;;
52872;Laerm;40124;52.198;9.902;2024-03-08T05:08:42;73.44;45.20;88.03;;
52872;Laerm;40124;52.198;9.902;2024-03-08T05:15:04;71.76;48.99;88.08;;
52872;Laerm;40124;52.198;9.902;2024-03-08T05:17:50;70.60;46.84;84.55;;
52872;Laerm;40124;52.198;9.902;2024-03-08T05:20:16;71.91;52.36;85.96;;
52872;Laerm;40124;52.198;9.902;2024-03-08T05:29:12;69.26;45.66;83.75;;
52872;Laerm;40124;52.198;9.902;2024-03-08T05:31:50;71.87;48.13;85.58;;
52872;Laerm;40124;52.198;9.902;2024-03-08T05:34:23;70.54;52.95;81.38;;
52872;Laerm;40124;52.198;9.902;2024-03-08T05:37:09;70.75;47.86;84.30;;
52872;Laerm;40124;52.198;9.902;2024-03-08T05:39:34;71.57;48.94;83.97;;
52872;Laerm;40124;52.198;9.902;2024-03-08T05:41:59;72.70;48.55;88.90;;
52872;Laerm;40124;52.198;9.902;2024-03-08T05:44:25;73.85;50.56;88.95;;
52872;Laerm;40124;52.198;9.902;2024-03-08T05:46:53;72.29;48.74;86.45;;
52872;Laerm;40124;52.198;9.902;2024-03-08T05:49:19;71.29;46.50;83.63;;
52872;Laerm;40124;52.198;9.902;2024-03-08T05:51:44;68.91;47.52;81.15;;
52872;Laerm;40124;52.198;9.902;2024-03-08T05:54:15;71.71;47.26;82.78;;
52872;Laerm;40124;52.198;9.902;2024-03-08T06:00:10;69.72;48.58;81.62;;
52872;Laerm;40124;52.198;9.902;2024-03-08T06:02:36;71.71;49.36;83.44;;
52872;Laerm;40124;52.198;9.902;2024-03-08T06:05:06;73.02;49.80;85.68;;
52872;Laerm;40124;52.198;9.902;2024-03-08T06:10:08;72.96;46.66;85.65;;
52872;Laerm;40124;52.198;9.902;2024-03-08T06:12:35;71.41;54.21;82.36;;
52872;Laerm;40124;52.198;9.902;2024-03-08T06:15:05;72.20;50.27;80.79;;
52872;Laerm;40124;52.198;9.902;2024-03-08T06:17:30;74.21;49.62;88.19;;
52872;Laerm;40124;52.198;9.902;2024-03-08T06:19:55;73.09;50.06;83.31;;
52872;Laerm;40124;52.198;9.902;2024-03-08T06:23:03;73.62;56.87;85.70;;
52872;Laerm;40124;52.198;9.902;2024-03-08T06:25:21;72.90;48.21;87.06;;
52872;Laerm;40124;52.198;9.902;2024-03-08T06:27:56;72.50;54.04;84.58;;
52872;Laerm;40124;52.198;9.902;2024-03-08T06:33:17;72.97;51.15;85.68;;
52872;Laerm;40124;52.198;9.902;2024-03-08T06:35:42;73.27;54.65;84.28;;
52872;Laerm;40124;52.198;9.902;2024-03-08T06:38:08;71.55;53.15;82.07;;
52872;Laerm;40124;52.198;9.902;2024-03-08T06:40:33;70.73;56.31;82.02;;
52872;Laerm;40124;52.198;9.902;2024-03-08T06:42:58;71.45;47.61;82.35;;
52872;Laerm;40124;52.198;9.902;2024-03-08T06:45:32;72.41;50.85;87.56;;
52872;Laerm;40124;52.198;9.902;2024-03-08T06:47:57;71.39;49.64;81.44;;
52872;Laerm;40124;52.198;9.902;2024-03-08T06:50:22;70.28;49.38;85.93;;
52872;Laerm;40124;52.198;9.902;2024-03-08T06:52:48;73.34;55.30;85.03;;
52872;Laerm;40124;52.198;9.902;2024-03-08T06:55:18;75.77;57.72;90.10;;
52872;Laerm;40124;52.198;9.902;2024-03-08T06:57:43;68.80;50.53;79.83;;
52872;Laerm;40124;52.198;9.902;2024-03-08T07:00:09;69.68;47.59;80.08;;
52872;Laerm;40124;52.198;9.902;2024-03-08T07:02:43;71.57;47.86;85.25;;
52872;Laerm;40124;52.198;9.902;2024-03-08T07:05:10;72.36;52.49;84.67;;
52872;Laerm;40124;52.198;9.902;2024-03-08T07:07:36;69.54;50.07;83.77;;
52872;Laerm;40124;52.198;9.902;2024-03-08T07:10:02;68.42;48.28;79.72;;
52872;Laerm;40124;52.198;9.902;2024-03-08T07:12:27;75.89;55.22;91.58;;
52872;Laerm;40124;52.198;9.902;2024-03-08T07:14:52;73.81;53.91;94.44;;
52872;Laerm;40124;52.198;9.902;2024-03-08T07:17:18;69.60;45.97;83.35;;
52872;Laerm;40124;52.198;9.902;2024-03-08T07:19:43;71.52;49.27;83.28;;
52872;Laerm;40124;52.198;9.902;2024-03-08T07:22:08;69.87;49.00;81.80;;
52872;Laerm;40124;52.198;9.902;2024-03-08T07:24:34;68.00;48.02;79.98;;
52872;Laerm;40124;52.198;9.902;2024-03-08T07:27:17;73.52;52.51;91.71;;
52872;Laerm;40124;52.198;9.902;2024-03-08T07:29:43;70.17;51.18;85.00;;
52872;Laerm;40124;52.198;9.902;2024-03-08T07:32:08;71.05;51.08;87.90;;
52872;Laerm;40124;52.198;9.902;2024-03-08T07:34:53;69.96;48.98;82.56;;
52872;Laerm;40124;52.198;9.902;2024-03-08T07:37:20;69.98;46.55;84.25;;
52872;Laerm;40124;52.198;9.902;2024-03-08T07:39:46;72.82;52.13;89.28;;
52872;Laerm;40124;52.198;9.902;2024-03-08T07:42:11;72.58;48.39;92.28;;
52872;Laerm;40124;52.198;9.902;2024-03-08T07:44:40;72.28;46.45;87.00;;
52872;Laerm;40124;52.198;9.902;2024-03-08T07:47:05;69.71;52.67;80.95;;
52872;Laerm;40124;52.198;9.902;2024-03-08T07:49:32;74.92;50.95;91.85;;
52872;Laerm;40124;52.198;9.902;2024-03-08T07:51:57;73.29;49.84;91.29;;
52872;Laerm;40124;52.198;9.902;2024-03-08T07:54:23;70.23;50.40;86.87;;
52872;Laerm;40124;52.198;9.902;2024-03-08T07:56:51;70.06;49.28;87.98;;
52872;Laerm;40124;52.198;9.902;2024-03-08T07:59:17;65.19;47.00;78.46;;
52872;Laerm;40124;52.198;9.902;2024-03-08T08:04:59;69.24;46.62;83.81;;
52872;Laerm;40124;52.198;9.902;2024-03-08T08:07:25;70.28;49.79;85.15;;
52872;Laerm;40124;52.198;9.902;2024-03-08T08:10:07;65.09;46.93;80.72;;
52872;Laerm;40124;52.198;9.902;2024-03-08T08:12:36;76.54;52.04;92.77;;
52872;Laerm;40124;52.198;9.902;2024-03-08T08:15:10;68.15;50.33;83.25;;
52872;Laerm;40124;52.198;9.902;2024-03-08T08:17:38;72.68;47.70;91.80;;
52872;Laerm;40124;52.198;9.902;2024-03-08T08:23:00;74.43;54.19;88.22;;
52872;Laerm;40124;52.198;9.902;2024-03-08T08:25:28;75.36;47.72;97.56;;
52872;Laerm;40124;52.198;9.902;2024-03-08T08:27:54;70.43;51.18;87.56;;
52872;Laerm;40124;52.198;9.902;2024-03-08T08:30:29;70.12;46.05;83.37;;
52872;Laerm;40124;52.198;9.902;2024-03-08T08:32:55;68.45;48.43;80.14;;
52872;Laerm;40124;52.198;9.902;2024-03-08T08:35:29;69.69;49.82;85.79;;
52872;Laerm;40124;52.198;9.902;2024-03-08T08:37:55;70.48;49.58;85.07;;
52872;Laerm;40124;52.198;9.902;2024-03-08T08:40:20;67.34;50.68;80.50;;
52872;Laerm;40124;52.198;9.902;2024-03-08T08:42:51;69.22;49.96;83.75;;
52872;Laerm;40124;52.198;9.902;2024-03-08T08:45:26;69.47;50.12;86.69;;
52872;Laerm;40124;52.198;9.902;2024-03-08T08:48:11;68.80;47.06;80.08;;
52872;Laerm;40124;52.198;9.902;2024-03-08T08:50:48;71.33;48.51;90.31;;
52872;Laerm;40124;52.198;9.902;2024-03-08T08:53:16;68.49;47.46;80.62;;
52872;Laerm;40124;52.198;9.902;2024-03-08T08:55:45;64.61;46.97;78.97;;
52872;Laerm;40124;52.198;9.902;2024-03-08T08:58:42;68.36;44.94;83.29;;
52872;Laerm;40124;52.198;9.902;2024-03-08T09:01:09;66.88;47.04;81.16;;
52872;Laerm;40124;52.198;9.902;2024-03-08T09:03:54;69.50;49.52;80.68;;
52872;Laerm;40124;52.198;9.902;2024-03-08T09:06:27;69.16;48.60;85.38;;
52872;Laerm;40124;52.198;9.902;2024-03-08T09:08:59;70.06;51.53;83.31;;
52872;Laerm;40124;52.198;9.902;2024-03-08T09:11:25;71.63;49.62;86.73;;
52872;Laerm;40124;52.198;9.902;2024-03-08T09:13:53;68.94;48.49;85.11;;
52872;Laerm;40124;52.198;9.902;2024-03-08T09:16:22;68.49;50.05;82.94;;
52872;Laerm;40124;52.198;9.902;2024-03-08T09:18:50;67.85;46.43;80.15;;
52872;Laerm;40124;52.198;9.902;2024-03-08T09:21:19;67.46;50.44;80.71;;
52872;Laerm;40124;52.198;9.902;2024-03-08T09:26:43;69.91;50.01;85.83;;
52872;Laerm;40124;52.198;9.902;2024-03-08T09:29:17;70.53;48.24;88.46;;
52872;Laerm;40124;52.198;9.902;2024-03-08T09:31:43;70.54;51.24;89.18;;
52872;Laerm;40124;52.198;9.902;2024-03-08T09:34:11;66.98;49.14;79.80;;
52872;Laerm;40124;52.198;9.902;2024-03-08T09:36:40;67.87;49.38;80.13;;
52872;Laerm;40124;52.198;9.902;2024-03-08T09:39:07;68.33;49.32;84.63;;
52872;Laerm;40124;52.198;9.902;2024-03-08T09:41:33;70.25;48.63;81.60;;
52872;Laerm;40124;52.198;9.902;2024-03-08T09:43:59;67.58;43.49;79.53;;
52872;Laerm;40124;52.198;9.902;2024-03-08T09:46:28;71.35;47.10;87.00;;
52872;Laerm;40124;52.198;9.902;2024-03-08T09:49:03;66.89;45.86;78.24;;
52872;Laerm;40124;52.198;9.902;2024-03-08T09:51:33;67.69;46.93;82.25;;
52872;Laerm;40124;52.198;9.902;2024-03-08T09:54:00;67.89;48.08;84.68;;
52872;Laerm;40124;52.198;9.902;2024-03-08T09:56:31;69.16;47.32;83.81;;
52872;Laerm;40124;52.198;9.902;2024-03-08T09:59:00;68.08;48.96;86.69;;
52872;Laerm;40124;52.198;9.902;2024-03-08T10:01:48;70.34;54.42;84.39;;
52872;Laerm;40124;52.198;9.902;2024-03-08T10:04:27;65.77;46.62;78.05;;
52872;Laerm;40124;52.198;9.902;2024-03-08T10:07:10;68.47;48.69;85.29;;
52872;Laerm;40124;52.198;9.902;2024-03-08T10:09:36;68.82;47.02;83.63;;
52872;Laerm;40124;52.198;9.902;2024-03-08T10:12:05;74.25;45.75;92.65;;
52872;Laerm;40124;52.198;9.902;2024-03-08T10:17:34;70.71;49.66;85.80;;
52872;Laerm;40124;52.198;9.902;2024-03-08T10:20:25;70.41;48.63;85.71;;
52872;Laerm;40124;52.198;9.902;2024-03-08T10:22:51;71.34;58.38;84.53;;
52872;Laerm;40124;52.198;9.902;2024-03-08T10:25:22;72.43;56.73;86.51;;
52872;Laerm;40124;52.198;9.902;2024-03-08T10:27:51;67.37;45.83;81.37;;
52872;Laerm;40124;52.198;9.902;2024-03-08T10:33:26;68.94;45.45;82.17;;
52872;Laerm;40124;52.198;9.902;2024-03-08T10:39:24;68.42;44.76;80.89;;
52872;Laerm;40124;52.198;9.902;2024-03-08T10:41:55;65.78;44.47;79.47;;
52872;Laerm;40124;52.198;9.902;2024-03-08T10:47:39;67.89;45.45;80.48;;
52872;Laerm;40124;52.198;9.902;2024-03-08T10:52:41;69.38;48.20;82.17;;
52872;Laerm;40124;52.198;9.902;2024-03-08T10:55:10;70.11;47.34;83.08;;
52872;Laerm;40124;52.198;9.902;2024-03-08T10:57:45;70.68;48.69;83.47;;
52872;Laerm;40124;52.198;9.902;2024-03-08T11:00:31;68.54;49.85;79.44;;
52872;Laerm;40124;52.198;9.902;2024-03-08T11:08:48;68.52;45.66;81.14;;
52872;Laerm;40124;52.198;9.902;2024-03-08T11:11:33;68.52;51.28;79.06;;
52872;Laerm;40124;52.198;9.902;2024-03-08T11:20:15;70.59;49.77;84.93;;
52872;Laerm;40124;52.198;9.902;2024-03-08T11:22:52;68.70;49.77;81.36;;
52872;Laerm;40124;52.198;9.902;2024-03-08T11:28:10;70.44;49.49;85.86;;
52872;Laerm;40124;52.198;9.902;2024-03-08T11:30:42;70.76;52.59;82.31;;
52872;Laerm;40124;52.198;9.902;2024-03-08T11:33:30;68.09;48.29;87.02;;
52872;Laerm;40124;52.198;9.902;2024-03-08T11:38:51;70.21;52.63;81.72;;
52872;Laerm;40124;52.198;9.902;2024-03-08T11:41:34;70.76;48.81;89.21;;
52872;Laerm;40124;52.198;9.902;2024-03-08T11:44:05;69.86;47.63;83.68;;
52872;Laerm;40124;52.198;9.902;2024-03-08T11:53:07;71.33;54.65;80.70;;
52872;Laerm;40124;52.198;9.902;2024-03-08T11:56:08;70.78;50.44;83.20;;
52872;Laerm;40124;52.198;9.902;2024-03-08T11:58:51;71.28;46.02;85.11;;
52872;Laerm;40124;52.198;9.902;2024-03-08T12:01:43;69.31;44.76;81.29;;
52872;Laerm;40124;52.198;9.902;2024-03-08T12:04:12;71.95;45.80;85.90;;
52872;Laerm;40124;52.198;9.902;2024-03-08T12:06:39;72.31;51.15;86.52;;
52872;Laerm;40124;52.198;9.902;2024-03-08T12:09:13;72.10;47.95;87.15;;
52872;Laerm;40124;52.198;9.902;2024-03-08T12:11:42;69.84;48.38;84.50;;
52872;Laerm;40124;52.198;9.902;2024-03-08T12:14:30;69.87;53.13;80.17;;
52872;Laerm;40124;52.198;9.902;2024-03-08T12:17:21;73.74;49.55;89.31;;
52872;Laerm;40124;52.198;9.902;2024-03-08T12:19:51;70.90;47.72;87.73;;
52872;Laerm;40124;52.198;9.902;2024-03-08T12:22:19;72.93;53.02;85.62;;
52872;Laerm;40124;52.198;9.902;2024-03-08T12:25:03;73.73;48.52;90.81;;
52872;Laerm;40124;52.198;9.902;2024-03-08T12:30:30;70.67;47.22;89.57;;
52872;Laerm;40124;52.198;9.902;2024-03-08T12:33:06;70.56;49.39;81.01;;
52872;Laerm;40124;52.198;9.902;2024-03-08T12:35:41;71.41;51.12;83.26;;
52872;Laerm;40124;52.198;9.902;2024-03-08T12:38:23;71.57;46.73;82.27;;
52872;Laerm;40124;52.198;9.902;2024-03-08T12:44:04;70.10;47.93;83.37;;
52872;Laerm;40124;52.198;9.902;2024-03-08T12:46:37;72.75;46.43;87.23;;
52872;Laerm;40124;52.198;9.902;2024-03-08T12:49:08;71.76;50.39;80.96;;
52872;Laerm;40124;52.198;9.902;2024-03-08T12:51:46;71.25;48.92;81.83;;
52872;Laerm;40124;52.198;9.902;2024-03-08T12:54:17;71.34;50.46;81.04;;
52872;Laerm;40124;52.198;9.902;2024-03-08T12:56:48;72.47;49.64;85.69;;
52872;Laerm;40124;52.198;9.902;2024-03-08T12:59:39;71.47;50.50;86.34;;
52872;Laerm;40124;52.198;9.902;2024-03-08T13:02:20;71.30;48.88;87.05;;
52872;Laerm;40124;52.198;9.902;2024-03-08T13:04:46;72.53;50.44;87.04;;
52872;Laerm;40124;52.198;9.902;2024-03-08T13:07:21;71.14;48.67;85.97;;
52872;Laerm;40124;52.198;9.902;2024-03-08T13:10:02;72.29;48.07;85.33;;
52872;Laerm;40124;52.198;9.902;2024-03-08T13:12:28;70.13;53.42;80.62;;
52872;Laerm;40124;52.198;9.902;2024-03-08T13:14:57;72.29;52.11;84.70;;
52872;Laerm;40124;52.198;9.902;2024-03-08T13:17:26;71.14;50.09;81.09;;
52872;Laerm;40124;52.198;9.902;2024-03-08T13:23:06;72.11;53.82;83.65;;
52872;Laerm;40124;52.198;9.902;2024-03-08T13:25:39;71.31;46.86;87.22;;
52872;Laerm;40124;52.198;9.902;2024-03-08T13:28:26;73.06;49.36;87.84;;
52872;Laerm;40124;52.198;9.902;2024-03-08T13:30:55;71.43;48.88;80.85;;
52872;Laerm;40124;52.198;9.902;2024-03-08T13:33:26;72.16;51.02;81.64;;
52872;Laerm;40124;52.198;9.902;2024-03-08T13:35:55;69.41;48.67;80.27;;
52872;Laerm;40124;52.198;9.902;2024-03-08T13:38:25;73.84;53.65;89.10;;
52872;Laerm;40124;52.198;9.902;2024-03-08T13:41:00;71.70;49.94;81.31;;
52872;Laerm;40124;52.198;9.902;2024-03-08T13:43:34;72.25;52.36;80.66;;
52872;Laerm;40124;52.198;9.902;2024-03-08T13:46:02;71.69;49.77;83.43;;
52872;Laerm;40124;52.198;9.902;2024-03-08T13:48:44;71.13;52.28;80.75;;
52872;Laerm;40124;52.198;9.902;2024-03-08T13:54:28;70.80;50.23;84.63;;
52872;Laerm;40124;52.198;9.902;2024-03-08T13:56:58;71.72;49.46;80.73;;
52872;Laerm;40124;52.198;9.902;2024-03-08T13:59:38;73.26;48.54;86.81;;
52872;Laerm;40124;52.198;9.902;2024-03-08T14:02:13;72.63;53.53;81.49;;
52872;Laerm;40124;52.198;9.902;2024-03-08T14:04:45;72.14;51.89;81.65;;
52872;Laerm;40124;52.198;9.902;2024-03-08T14:07:12;71.63;52.51;81.22;;
52872;Laerm;40124;52.198;9.902;2024-03-08T14:12:29;71.99;55.37;81.07;;
52872;Laerm;40124;52.198;9.902;2024-03-08T14:18:11;71.96;51.15;86.17;;
52872;Laerm;40124;52.198;9.902;2024-03-08T14:20:38;71.62;56.48;80.10;;
52872;Laerm;40124;52.198;9.902;2024-03-08T14:23:33;73.38;52.34;89.94;;
52872;Laerm;40124;52.198;9.902;2024-03-08T14:26:03;70.58;51.02;80.45;;
52872;Laerm;40124;52.198;9.902;2024-03-08T14:28:55;72.33;51.64;80.87;;
52872;Laerm;40124;52.198;9.902;2024-03-08T14:31:58;72.44;48.63;81.50;;
52872;Laerm;40124;52.198;9.902;2024-03-08T14:34:27;72.06;51.72;82.58;;
52872;Laerm;40124;52.198;9.902;2024-03-08T14:37:09;71.50;51.53;84.82;;
52872;Laerm;40124;52.198;9.902;2024-03-08T14:39:39;69.46;49.53;81.00;;
52872;Laerm;40124;52.198;9.902;2024-03-08T14:45:27;72.05;51.94;82.79;;
52872;Laerm;40124;52.198;9.902;2024-03-08T14:48:12;73.70;48.39;86.87;;
52872;Laerm;40124;52.198;9.902;2024-03-08T14:50:42;72.08;54.66;80.80;;
52872;Laerm;40124;52.198;9.902;2024-03-08T14:53:09;71.98;51.47;81.14;;
52872;Laerm;40124;52.198;9.902;2024-03-08T14:55:35;71.32;50.62;84.12;;
52872;Laerm;40124;52.198;9.902;2024-03-08T14:58:02;71.95;50.17;82.34;;
52872;Laerm;40124;52.198;9.902;2024-03-08T15:00:29;72.71;56.95;81.64;;
52872;Laerm;40124;52.198;9.902;2024-03-08T15:03:01;72.44;57.85;84.38;;
52872;Laerm;40124;52.198;9.902;2024-03-08T15:05:39;72.91;50.51;85.51;;
52872;Laerm;40124;52.198;9.902;2024-03-08T15:08:13;73.03;51.87;86.30;;
52872;Laerm;40124;52.198;9.902;2024-03-08T15:10:50;71.15;50.34;81.17;;
52872;Laerm;40124;52.198;9.902;2024-03-08T15:13:28;71.76;51.64;82.25;;
52872;Laerm;40124;52.198;9.902;2024-03-08T15:16:22;71.45;46.93;79.98;;
52872;Laerm;40124;52.198;9.902;2024-03-08T15:18:50;71.20;54.03;83.46;;
52872;Laerm;40124;52.198;9.902;2024-03-08T15:21:17;72.98;57.18;82.53;;
52872;Laerm;40124;52.198;9.902;2024-03-08T15:23:44;70.31;46.38;81.55;;
52872;Laerm;40124;52.198;9.902;2024-03-08T15:26:19;71.03;50.57;80.17;;
52872;Laerm;40124;52.198;9.902;2024-03-08T15:28:45;70.02;49.67;79.53;;
52872;Laerm;40124;52.198;9.902;2024-03-08T15:31:12;71.56;50.74;81.41;;
52872;Laerm;40124;52.198;9.902;2024-03-08T15:33:50;72.14;53.10;85.07;;
52872;Laerm;40124;52.198;9.902;2024-03-08T15:36:28;71.50;51.76;81.97;;
52872;Laerm;40124;52.198;9.902;2024-03-08T15:39:08;70.70;49.44;81.63;;
52872;Laerm;40124;52.198;9.902;2024-03-08T15:41:35;71.22;49.03;81.28;;
52872;Laerm;40124;52.198;9.902;2024-03-08T15:44:04;73.10;46.43;82.57;;
52872;Laerm;40124;52.198;9.902;2024-03-08T15:46:39;71.19;47.24;86.20;;
52872;Laerm;40124;52.198;9.902;2024-03-08T15:49:05;69.41;50.48;80.20;;
52872;Laerm;40124;52.198;9.902;2024-03-08T15:57:46;71.22;51.98;80.52;;
52872;Laerm;40124;52.198;9.902;2024-03-08T16:00:18;70.03;48.00;80.33;;
52872;Laerm;40124;52.198;9.902;2024-03-08T16:03:11;70.04;47.61;81.43;;
52872;Laerm;40124;52.198;9.902;2024-03-08T16:05:38;74.54;51.44;91.15;;
52872;Laerm;40124;52.198;9.902;2024-03-08T16:08:07;71.08;46.07;81.60;;
52872;Laerm;40124;52.198;9.902;2024-03-08T16:10:40;74.36;52.00;89.79;;
52872;Laerm;40124;52.198;9.902;2024-03-08T16:13:17;71.73;50.80;85.07;;
52872;Laerm;40124;52.198;9.902;2024-03-08T16:15:46;69.92;47.61;82.79;;
52872;Laerm;40124;52.198;9.902;2024-03-08T16:21:16;70.91;50.98;83.05;;